Time;durP1;ratioP1;P1;durP2;ratioP2;P2;SDS_P1;SDS_P2;PMS_P1;PMS_P2;Temp;Humidity;BMP_temperature;BMP_pressure;BME280_temperature;BME280_humidity;BME280_pressure;Samples;Min_cycle;Max_cycle;Signal;HPM_P1;HPM_P2
2023/06/23 00:00:55;;;;;;;3.13;1.97;;;24.50;69.80;24.10;96516.00;;;;4970748;28;20228;-85
2023/06/23 00:03:22;;;;;;;1.70;1.50;;;24.50;69.40;24.10;96514.00;;;;4967231;28;20203;-85
2023/06/23 00:05:49;;;;;;;3.53;1.77;;;24.40;69.40;24.00;96516.00;;;;4970015;28;20222;-85
2023/06/23 00:08:16;;;;;;;1.97;1.40;;;24.40;69.10;24.00;96514.00;;;;4971455;28;20824;-85
2023/06/23 00:10:45;;;;;;;1.67;1.40;;;24.40;69.00;23.90;96519.00;;;;4970861;28;20207;-85
2023/06/23 00:13:12;;;;;;;1.60;1.50;;;24.40;68.90;23.90;96518.00;;;;4969722;28;20231;-85
2023/06/23 00:15:40;;;;;;;1.70;1.53;;;24.30;68.60;23.90;96516.00;;;;4967460;28;20687;-85
2023/06/23 00:18:07;;;;;;;1.37;1.10;;;24.30;68.50;23.80;96517.00;;;;4971392;28;20203;-85
2023/06/23 00:20:34;;;;;;;1.57;1.30;;;24.30;68.40;23.80;96525.00;;;;4952120;28;20203;-85
2023/06/23 00:23:02;;;;;;;2.27;1.53;;;24.20;68.10;23.70;96526.00;;;;4972449;28;20211;-85
2023/06/23 00:25:29;;;;;;;1.90;1.30;;;24.20;68.10;23.70;96531.00;;;;4962069;28;20797;-86
2023/06/23 00:27:58;;;;;;;2.20;1.30;;;24.20;67.90;23.60;96521.00;;;;4973349;28;20607;-86
2023/06/23 00:30:26;;;;;;;1.17;1.00;;;24.10;67.90;23.60;96524.00;;;;4970728;28;20269;-86
2023/06/23 00:32:53;;;;;;;1.93;1.10;;;24.10;68.00;23.60;96539.00;;;;4972123;28;20265;-86
2023/06/23 00:35:21;;;;;;;1.43;1.30;;;24.00;67.90;23.50;96528.00;;;;4963463;28;20216;-86
2023/06/23 00:37:48;;;;;;;1.30;1.20;;;24.00;67.90;23.50;96536.00;;;;4965737;28;20227;-85
2023/06/23 00:40:16;;;;;;;1.83;1.03;;;24.00;67.90;23.40;96540.00;;;;4963703;28;20208;-86
2023/06/23 00:42:45;;;;;;;1.27;0.90;;;23.90;67.70;23.40;96536.00;;;;4967809;28;20728;-85
2023/06/23 00:45:14;;;;;;;1.80;1.37;;;23.90;67.60;23.40;96538.00;;;;4965876;28;20230;-85
2023/06/23 00:47:43;;;;;;;3.43;1.20;;;23.90;67.70;23.30;96548.00;;;;4973469;28;20244;-85
2023/06/23 00:50:16;;;;;;;1.67;1.30;;;23.80;67.40;23.30;96556.00;;;;4972691;28;20261;-85
2023/06/23 00:52:49;;;;;;;1.33;0.97;;;23.80;67.50;23.30;96555.00;;;;4973389;28;20210;-86
2023/06/23 00:55:19;;;;;;;1.10;1.00;;;23.70;68.20;23.20;96550.00;;;;4974352;28;20214;-85
2023/06/23 00:57:47;;;;;;;1.73;1.20;;;23.70;67.20;23.20;96557.00;;;;4969768;28;20222;-85
2023/06/23 01:00:19;;;;;;;1.43;1.30;;;23.70;67.30;23.20;96560.00;;;;4967179;28;20208;-86
2023/06/23 01:02:49;;;;;;;1.80;1.00;;;23.60;67.10;23.10;96551.00;;;;4959362;28;20569;-85
2023/06/23 01:05:17;;;;;;;1.60;1.23;;;23.60;67.20;23.10;96560.00;;;;4967419;28;20264;-85
2023/06/23 01:07:57;;;;;;;3.73;1.10;;;23.60;67.20;23.10;96564.00;;;;4972615;28;20246;-85
2023/06/23 01:10:35;;;;;;;1.43;1.00;;;23.50;67.30;23.00;96568.00;;;;4970696;28;20201;-85
2023/06/23 01:13:13;;;;;;;1.10;0.93;;;23.50;67.40;23.00;96577.00;;;;4972003;28;20202;-85
2023/06/23 01:15:50;;;;;;;1.33;1.17;;;23.50;67.50;23.00;96566.00;;;;4966433;28;20200;-85
2023/06/23 01:18:29;;;;;;;1.10;1.00;;;23.50;67.80;23.00;96567.00;;;;4971375;28;20197;-85
2023/06/23 01:21:04;;;;;;;1.00;0.93;;;23.40;67.30;22.90;96566.00;;;;4972104;28;20749;-85
2023/06/23 01:24:06;;;;;;;1.37;1.10;;;23.40;67.20;22.90;96581.00;;;;4970679;28;20248;-86
2023/06/23 01:27:04;;;;;;;1.20;1.10;;;23.40;68.00;22.90;96577.00;;;;4961406;28;20236;-85
2023/06/23 01:29:38;;;;;;;1.43;1.03;;;23.40;67.30;22.90;96577.00;;;;4969061;28;20276;-86
2023/06/23 01:32:15;;;;;;;1.53;0.87;;;23.40;67.30;22.80;96567.00;;;;4976069;28;20201;-86
2023/06/23 01:34:50;;;;;;;3.30;1.07;;;23.30;67.20;22.80;96575.00;;;;4969786;28;20247;-86
2023/06/23 01:37:24;;;;;;;1.47;1.00;;;23.30;67.50;22.80;96571.00;;;;4967292;28;20223;-86
2023/06/23 01:39:57;;;;;;;1.60;0.90;;;23.30;67.30;22.80;96575.00;;;;4971314;28;20197;-86
2023/06/23 01:42:32;;;;;;;1.20;1.10;;;23.30;67.30;22.80;96570.00;;;;4973936;28;20619;-86
2023/06/23 01:45:07;;;;;;;1.27;1.00;;;23.30;67.30;22.80;96574.00;;;;4957651;28;20703;-85
2023/06/23 01:47:39;;;;;;;1.03;0.90;;;23.30;67.20;22.80;96574.00;;;;4974196;28;20228;-86
2023/06/23 01:50:12;;;;;;;2.33;1.20;;;23.20;67.20;22.70;96575.00;;;;4968935;28;20212;-86
2023/06/23 01:52:42;;;;;;;1.43;1.33;;;23.20;67.20;22.70;96558.00;;;;4971647;28;20196;-85
2023/06/23 01:55:13;;;;;;;0.80;0.80;;;23.20;67.30;22.70;96561.00;;;;4963781;28;20247;-85
2023/06/23 01:57:45;;;;;;;1.10;1.00;;;23.20;67.50;22.70;96567.00;;;;4971896;28;20222;-85
2023/06/23 02:00:19;;;;;;;3.07;1.00;;;23.20;67.50;22.70;96566.00;;;;4973307;28;20211;-85
2023/06/23 02:02:52;;;;;;;1.63;1.10;;;23.20;67.50;22.70;96571.00;;;;4974556;28;20205;-86
2023/06/23 02:05:23;;;;;;;1.83;0.83;;;23.20;67.50;22.70;96584.00;;;;4972444;28;20280;-86
2023/06/23 02:07:54;;;;;;;1.80;0.80;;;23.20;67.60;22.70;96592.00;;;;4975368;28;20228;-86
2023/06/23 02:10:24;;;;;;;1.33;0.70;;;23.20;67.80;22.70;96587.00;;;;4954900;28;20564;-86
2023/06/23 02:12:58;;;;;;;1.13;1.00;;;23.20;67.80;22.70;96573.00;;;;4984396;28;20581;-86
2023/06/23 02:15:29;;;;;;;0.80;0.80;;;23.20;68.00;22.70;96566.00;;;;4974270;28;20199;-86
2023/06/23 02:17:57;;;;;;;1.20;0.83;;;23.20;67.50;22.70;96569.00;;;;4963657;28;20414;-86
2023/06/23 02:20:26;;;;;;;0.80;0.80;;;23.20;67.40;22.70;96562.00;;;;4975200;28;20202;-86
2023/06/23 02:22:54;;;;;;;3.77;1.10;;;23.20;67.40;22.70;96564.00;;;;4958916;28;20289;-86
2023/06/23 02:25:23;;;;;;;1.53;1.13;;;23.20;67.30;22.70;96567.00;;;;4953526;28;20606;-86
2023/06/23 02:27:52;;;;;;;1.90;1.07;;;23.20;67.10;22.70;96560.00;;;;4968229;28;20229;-86
2023/06/23 02:30:19;;;;;;;0.90;0.90;;;23.20;67.30;22.70;96553.00;;;;4965481;28;20200;-86
2023/06/23 02:32:49;;;;;;;1.10;0.87;;;23.20;67.60;22.70;96555.00;;;;4972422;28;20233;-86
2023/06/23 02:35:16;;;;;;;1.80;1.10;;;23.20;67.40;22.70;96569.00;;;;4975078;28;20204;-86
2023/06/23 02:37:52;;;;;;;1.13;1.10;;;23.20;67.10;22.70;96570.00;;;;4979719;28;20228;-86
2023/06/23 02:40:26;;;;;;;1.23;1.00;;;23.20;67.00;22.70;96573.00;;;;4964902;28;20203;-86
2023/06/23 02:43:02;;;;;;;1.00;0.80;;;23.20;67.00;22.70;96566.00;;;;4972117;28;20207;-86
2023/06/23 02:45:36;;;;;;;1.63;1.07;;;23.20;67.00;22.70;96574.00;;;;4973039;28;20318;-86
2023/06/23 02:48:12;;;;;;;1.63;0.80;;;23.20;66.90;22.70;96572.00;;;;4975592;28;20201;-86
2023/06/23 02:50:41;;;;;;;1.67;0.80;;;23.20;66.80;22.70;96571.00;;;;4981882;28;20195;-85
2023/06/23 02:53:16;;;;;;;1.13;0.80;;;23.20;66.90;22.70;96570.00;;;;4969923;28;20207;-86
2023/06/23 02:55:47;;;;;;;1.23;1.00;;;23.20;66.80;22.70;96580.00;;;;4963670;28;20204;-86
2023/06/23 02:58:18;;;;;;;1.13;0.87;;;23.20;66.60;22.60;96571.00;;;;4972422;28;20196;-86
2023/06/23 03:00:47;;;;;;;0.80;0.80;;;23.10;66.40;22.70;96570.00;;;;4945147;28;20205;-86
2023/06/23 03:03:17;;;;;;;1.07;0.80;;;23.10;66.50;22.60;96591.00;;;;4961191;28;20200;-86
2023/06/23 03:05:44;;;;;;;0.83;0.77;;;23.10;66.40;22.60;96588.00;;;;4970718;28;20763;-86
2023/06/23 03:08:12;;;;;;;0.60;0.60;;;23.10;66.20;22.60;96596.00;;;;4995777;23;20251;-81
2023/06/23 03:10:40;;;;;;;1.20;1.00;;;23.10;66.30;22.60;96596.00;;;;5010995;28;20263;-81
2023/06/23 03:13:08;;;;;;;1.47;0.90;;;23.10;66.40;22.60;96596.00;;;;5002814;28;20204;-80
2023/06/23 03:15:36;;;;;;;1.23;1.13;;;23.10;66.20;22.70;96595.00;;;;4980243;28;20226;-80
2023/06/23 03:18:16;;;;;;;1.10;1.00;;;23.10;66.10;22.70;96591.00;;;;5003540;28;20233;-81
2023/06/23 03:20:50;;;;;;;0.70;0.70;;;23.10;66.00;22.70;96583.00;;;;4974851;28;20222;-81
2023/06/23 03:23:20;;;;;;;1.60;1.13;;;23.10;65.90;22.70;96592.00;;;;4988434;28;20722;-81
2023/06/23 03:25:49;;;;;;;1.03;1.00;;;23.20;66.20;22.70;96598.00;;;;4985100;28;20306;-81
2023/06/23 03:28:27;;;;;;;1.13;0.80;;;23.20;66.20;22.70;96595.00;;;;4987129;28;20226;-82
2023/06/23 03:31:01;;;;;;;0.93;0.80;;;23.20;65.80;22.70;96593.00;;;;4984775;28;20213;-82
2023/06/23 03:33:35;;;;;;;2.43;0.83;;;23.20;65.80;22.70;96598.00;;;;4975481;28;20627;-81
2023/06/23 03:36:12;;;;;;;0.90;0.90;;;23.20;66.50;22.70;96587.00;;;;4993724;28;20241;-82
2023/06/23 03:38:46;;;;;;;1.47;0.80;;;23.20;65.60;22.70;96582.00;;;;4989667;28;20357;-81
2023/06/23 03:41:15;;;;;;;0.60;0.60;;;23.20;65.80;22.70;96586.00;;;;4993436;28;20288;-80
2023/06/23 03:43:51;;;;;;;1.97;0.70;;;23.20;65.70;22.70;96589.00;;;;4977112;28;20311;-81
2023/06/23 03:46:26;;;;;;;1.53;0.90;;;23.20;65.40;22.70;96589.00;;;;4981253;28;20233;-81
2023/06/23 03:49:02;;;;;;;1.77;0.73;;;23.20;65.30;22.80;96575.00;;;;4975330;28;20204;-81
2023/06/23 03:51:36;;;;;;;0.97;0.83;;;23.20;65.40;22.80;96584.00;;;;4978117;28;20205;-81
2023/06/23 03:54:07;;;;;;;1.03;0.93;;;23.20;65.30;22.80;96583.00;;;;4975077;28;20195;-80
2023/06/23 03:56:37;;;;;;;2.50;1.03;;;23.20;65.60;22.80;96590.00;;;;4999899;28;20733;-80
2023/06/23 03:59:08;;;;;;;0.87;0.87;;;23.30;65.60;22.80;96595.00;;;;4979405;28;20202;-80
2023/06/23 04:01:37;;;;;;;1.30;1.17;;;23.30;65.60;22.90;96602.00;;;;4969005;28;20203;-80
2023/06/23 04:04:07;;;;;;;1.00;0.80;;;23.30;65.60;22.80;96600.00;;;;4977138;28;20234;-80
2023/06/23 04:06:38;;;;;;;0.80;0.80;;;23.30;65.50;22.80;96605.00;;;;4979853;28;20243;-79
2023/06/23 04:09:08;;;;;;;0.90;0.90;;;23.30;66.00;22.90;96612.00;;;;4986068;28;20217;-80
2023/06/23 04:11:38;;;;;;;0.97;0.80;;;23.30;65.50;22.90;96612.00;;;;4984238;28;20196;-80
2023/06/23 04:14:07;;;;;;;0.90;0.70;;;23.30;65.30;22.80;96616.00;;;;4993994;28;20204;-81
2023/06/23 04:16:40;;;;;;;1.30;0.80;;;23.30;66.00;22.80;96614.00;;;;4980158;28;20227;-78
2023/06/23 04:19:10;;;;;;;1.40;0.70;;;23.30;65.60;22.80;96617.00;;;;4982055;28;20228;-80
2023/06/23 04:21:40;;;;;;;0.87;0.67;;;23.30;65.60;22.80;96620.00;;;;4989459;28;20207;-80
2023/06/23 04:24:09;;;;;;;1.33;0.90;;;23.30;65.50;22.90;96606.00;;;;4985665;28;20233;-80
2023/06/23 04:26:38;;;;;;;1.93;0.80;;;23.30;65.50;22.80;96607.00;;;;4983787;28;20228;-80
2023/06/23 04:29:10;;;;;;;0.80;0.80;;;23.30;65.50;22.80;96618.00;;;;4980806;28;20208;-79
2023/06/23 04:31:42;;;;;;;1.03;0.80;;;23.30;65.60;22.80;96611.00;;;;4979206;28;20284;-80
2023/06/23 04:34:09;;;;;;;0.87;0.77;;;23.30;65.60;22.90;96609.00;;;;4985284;28;20204;-79
2023/06/23 04:36:46;;;;;;;0.80;0.80;;;23.30;65.70;22.90;96611.00;;;;4981816;28;20224;-80
2023/06/23 04:39:27;;;;;;;0.63;0.60;;;23.40;66.60;22.90;96617.00;;;;4982831;28;20207;-81
2023/06/23 04:42:01;;;;;;;0.67;0.57;;;23.40;65.80;22.90;96623.00;;;;4988138;28;20206;-81
2023/06/23 04:44:37;;;;;;;0.60;0.60;;;23.40;65.80;22.90;96634.00;;;;5000338;28;20628;-79
2023/06/23 04:47:07;;;;;;;1.10;0.73;;;23.30;65.80;22.90;96637.00;;;;4976990;28;20238;-79
2023/06/23 04:49:37;;;;;;;1.13;0.80;;;23.40;66.10;22.90;96641.00;;;;4985755;28;20207;-80
2023/06/23 04:52:09;;;;;;;0.50;0.47;;;23.40;66.20;22.90;96637.00;;;;4979216;28;20232;-78
2023/06/23 04:54:44;;;;;;;0.40;0.40;;;23.40;66.20;22.90;96640.00;;;;4983607;28;20823;-80
2023/06/23 04:57:18;;;;;;;0.30;0.30;;;23.40;66.40;22.90;96641.00;;;;4978719;28;20603;-79
2023/06/23 04:59:53;;;;;;;0.40;0.40;;;23.40;66.50;22.90;96640.00;;;;4988654;28;20200;-79
2023/06/23 05:02:25;;;;;;;0.70;0.53;;;23.40;66.80;23.00;96644.00;;;;4987130;28;20201;-80
2023/06/23 05:04:55;;;;;;;0.40;0.37;;;23.40;66.80;23.00;96657.00;;;;4977857;28;20195;-80
2023/06/23 05:07:26;;;;;;;0.67;0.30;;;23.40;66.80;23.00;96655.00;;;;5000768;28;20234;-80
2023/06/23 05:09:56;;;;;;;0.50;0.40;;;23.40;67.00;23.00;96656.00;;;;4976846;28;20288;-79
2023/06/23 05:12:28;;;;;;;0.40;0.33;;;23.40;67.00;23.00;96646.00;;;;4979877;28;20727;-78
2023/06/23 05:14:58;;;;;;;0.93;0.27;;;23.50;67.30;23.00;96652.00;;;;4977567;28;20661;-79
2023/06/23 05:17:31;;;;;;;0.50;0.50;;;23.40;67.30;23.00;96644.00;;;;4992413;28;20255;-79
2023/06/23 05:19:59;;;;;;;0.60;0.40;;;23.40;67.30;23.00;96648.00;;;;4983994;28;20199;-80
2023/06/23 05:22:30;;;;;;;0.40;0.40;;;23.50;67.30;23.00;96654.00;;;;4980493;28;20199;-78
2023/06/23 05:25:04;;;;;;;0.77;0.43;;;23.50;67.50;23.00;96645.00;;;;4983343;28;20297;-80
2023/06/23 05:27:33;;;;;;;1.23;0.40;;;23.40;67.30;23.00;96645.00;;;;4987527;28;20308;-79
2023/06/23 05:30:04;;;;;;;0.73;0.40;;;23.50;67.40;23.00;96647.00;;;;4993332;28;20194;-78
2023/06/23 05:32:43;;;;;;;0.40;0.40;;;23.40;67.50;23.00;96649.00;;;;4976013;28;20197;-80
2023/06/23 05:35:13;;;;;;;0.97;0.37;;;23.50;68.60;23.00;96656.00;;;;4980765;28;20847;-79
2023/06/23 05:37:44;;;;;;;0.67;0.40;;;23.50;67.90;23.00;96651.00;;;;4971247;28;20285;-79
2023/06/23 05:40:16;;;;;;;0.43;0.37;;;23.50;68.10;23.10;96657.00;;;;4980778;28;20206;-78
2023/06/23 05:42:45;;;;;;;0.40;0.30;;;23.50;68.30;23.10;96660.00;;;;4980666;28;20198;-80
2023/06/23 05:45:13;;;;;;;0.83;0.30;;;23.50;68.40;23.20;96665.00;;;;4991588;28;20246;-80
2023/06/23 05:47:51;;;;;;;0.23;0.20;;;23.60;68.50;23.20;96671.00;;;;4989574;28;20229;-78
2023/06/23 05:50:25;;;;;;;0.33;0.33;;;23.60;68.50;23.30;96680.00;;;;4991577;28;20198;-79
2023/06/23 05:53:07;;;;;;;3.00;0.50;;;23.70;68.50;23.30;96685.00;;;;4989424;28;20210;-79
2023/06/23 05:55:42;;;;;;;0.60;0.40;;;23.70;69.10;23.30;96688.00;;;;4986761;28;20580;-79
2023/06/23 05:58:15;;;;;;;0.20;0.20;;;23.70;68.80;23.30;96694.00;;;;4977525;28;20221;-79
2023/06/23 06:00:52;;;;;;;0.20;0.20;;;23.70;69.00;23.20;96701.00;;;;4983443;28;20280;-79
2023/06/23 06:03:24;;;;;;;0.50;0.30;;;23.70;69.30;23.20;96710.00;;;;5002144;28;20294;-80
2023/06/23 06:05:56;;;;;;;0.20;0.20;;;23.70;69.00;23.10;96722.00;;;;4971737;28;20312;-80
2023/06/23 06:08:28;;;;;;;0.30;0.30;;;23.70;69.40;23.10;96732.00;;;;4976370;28;20271;-79
2023/06/23 06:10:58;;;;;;;0.93;0.40;;;23.60;69.70;23.10;96743.00;;;;4979296;28;20288;-80
2023/06/23 06:13:28;;;;;;;0.30;0.30;;;23.60;69.80;23.00;96746.00;;;;4997420;28;20200;-78
2023/06/23 06:15:57;;;;;;;0.47;0.47;;;23.50;69.90;22.90;96747.00;;;;4980729;28;20223;-80
2023/06/23 06:18:26;;;;;;;0.50;0.50;;;23.50;69.90;22.90;96751.00;;;;4983777;28;20230;-80
2023/06/23 06:20:55;;;;;;;1.50;0.70;;;23.40;69.80;22.80;96763.00;;;;4986638;28;20563;-81
2023/06/23 06:23:25;;;;;;;1.03;0.93;;;23.40;69.80;22.70;96772.00;;;;4990655;28;20200;-80
2023/06/23 06:25:56;;;;;;;1.20;1.10;;;23.30;69.90;22.60;96772.00;;;;4991614;28;20205;-80
2023/06/23 06:28:27;;;;;;;1.23;1.10;;;23.30;69.90;22.50;96778.00;;;;4993511;28;20223;-79
2023/06/23 06:30:58;;;;;;;1.60;1.10;;;23.20;70.00;22.50;96780.00;;;;4988632;28;20639;-81
2023/06/23 06:33:29;;;;;;;1.20;1.10;;;23.10;70.00;22.40;96771.00;;;;4978665;28;20206;-81
2023/06/23 06:36:03;;;;;;;1.10;1.10;;;23.10;70.10;22.30;96783.00;;;;4994489;28;20282;-81
2023/06/23 06:38:36;;;;;;;1.50;1.40;;;23.00;70.30;22.20;96793.00;;;;4990601;28;20241;-80
2023/06/23 06:41:07;;;;;;;1.50;1.40;;;22.90;71.50;22.20;96797.00;;;;4973080;28;20199;-80
2023/06/23 06:43:35;;;;;;;1.50;1.40;;;22.90;71.10;22.20;96800.00;;;;4990701;28;20203;-81
2023/06/23 06:46:04;;;;;;;1.43;1.33;;;22.80;71.40;22.10;96803.00;;;;4975198;28;21211;-80
2023/06/23 06:48:35;;;;;;;1.50;1.40;;;22.80;71.90;22.10;96819.00;;;;4975726;28;20215;-81
2023/06/23 06:51:05;;;;;;;1.83;1.73;;;22.70;72.50;22.10;96819.00;;;;4977165;28;20261;-80
2023/06/23 06:53:34;;;;;;;1.50;1.40;;;22.70;72.90;22.10;96830.00;;;;4992456;28;20203;-81
2023/06/23 06:56:02;;;;;;;1.70;1.60;;;22.70;73.50;22.10;96823.00;;;;4984526;28;20210;-80
2023/06/23 06:58:29;;;;;;;1.70;1.60;;;22.70;73.50;22.20;96829.00;;;;4984923;28;20655;-81
2023/06/23 07:00:59;;;;;;;1.80;1.70;;;22.70;73.40;22.20;96845.00;;;;4985341;28;20580;-80
2023/06/23 07:03:27;;;;;;;1.87;1.77;;;22.70;73.20;22.20;96840.00;;;;4977645;28;20281;-81
2023/06/23 07:05:54;;;;;;;2.00;1.90;;;22.70;72.90;22.10;96845.00;;;;4966696;28;20787;-81
2023/06/23 07:08:21;;;;;;;2.00;1.90;;;22.70;72.80;22.10;96841.00;;;;4979871;28;20231;-80
2023/06/23 07:10:50;;;;;;;1.93;1.83;;;22.70;72.80;22.10;96848.00;;;;4977150;28;20199;-80
2023/06/23 07:13:18;;;;;;;2.40;2.20;;;22.70;73.30;22.10;96844.00;;;;4979724;28;20282;-81
2023/06/23 07:15:45;;;;;;;2.10;2.00;;;22.70;73.80;22.10;96851.00;;;;4974667;28;20209;-80
2023/06/23 07:18:13;;;;;;;2.50;2.30;;;22.70;73.40;22.10;96854.00;;;;4981474;28;20303;-80
2023/06/23 07:20:41;;;;;;;2.70;2.50;;;22.60;73.80;22.20;96854.00;;;;4983538;28;20210;-80
2023/06/23 07:23:09;;;;;;;2.20;2.07;;;22.60;73.70;22.20;96858.00;;;;4976918;28;20212;-80
2023/06/23 07:25:37;;;;;;;2.80;2.60;;;22.70;73.70;22.20;96857.00;;;;4982803;28;20199;-80
2023/06/23 07:28:06;;;;;;;2.67;2.47;;;22.70;73.60;22.20;96855.00;;;;4990989;28;20219;-80
2023/06/23 07:30:33;;;;;;;3.53;2.87;;;22.70;73.50;22.20;96857.00;;;;4976291;28;20254;-81
2023/06/23 07:33:00;;;;;;;2.90;2.70;;;22.70;73.30;22.20;96860.00;;;;4972951;28;20282;-79
2023/06/23 07:35:28;;;;;;;2.97;2.77;;;22.70;73.20;22.20;96857.00;;;;4981467;28;20206;-80
2023/06/23 07:37:55;;;;;;;3.57;3.37;;;22.70;73.30;22.20;96860.00;;;;4984858;28;20781;-80
2023/06/23 07:40:23;;;;;;;3.30;3.10;;;22.70;73.40;22.20;96865.00;;;;4991601;28;21115;-81
2023/06/23 07:42:50;;;;;;;3.40;3.10;;;22.70;73.40;22.30;96863.00;;;;4989826;28;20214;-80
2023/06/23 07:45:20;;;;;;;3.47;3.17;;;22.80;74.30;22.30;96859.00;;;;4994681;28;20209;-79
2023/06/23 07:47:48;;;;;;;3.33;3.03;;;22.80;73.50;22.30;96860.00;;;;5014343;28;20704;-80
2023/06/23 07:50:15;;;;;;;3.50;3.20;;;22.80;73.30;22.40;96871.00;;;;4989236;28;20194;-80
2023/06/23 07:52:43;;;;;;;3.37;3.17;;;22.90;73.40;22.40;96866.00;;;;4991678;28;20237;-80
2023/06/23 07:55:10;;;;;;;3.97;3.67;;;22.80;73.40;22.50;96871.00;;;;4998045;28;20199;-79
2023/06/23 07:57:38;;;;;;;4.10;3.70;;;22.90;73.40;22.50;96874.00;;;;4992193;28;20710;-81
2023/06/23 08:00:08;;;;;;;4.10;3.73;;;22.90;73.50;22.60;96874.00;;;;5000369;28;20199;-80
2023/06/23 08:02:37;;;;;;;3.53;3.23;;;23.00;73.80;22.70;96873.00;;;;4990720;28;20188;-80
2023/06/23 08:05:05;;;;;;;3.83;3.53;;;23.10;74.10;22.80;96886.00;;;;5018357;28;20291;-79
2023/06/23 08:07:33;;;;;;;3.47;3.17;;;23.20;73.60;22.90;96880.00;;;;5007360;28;20339;-80
2023/06/23 08:10:00;;;;;;;3.40;3.20;;;23.30;72.70;23.00;96874.00;;;;4987102;28;20288;-79
2023/06/23 08:12:27;;;;;;;4.27;3.90;;;23.30;72.60;23.00;96888.00;;;;4998197;28;20205;-79
2023/06/23 08:14:54;;;;;;;3.80;3.43;;;23.40;72.20;23.10;96882.00;;;;5024715;28;20204;-80
2023/06/23 08:17:22;;;;;;;4.27;3.87;;;23.50;72.10;23.10;96894.00;;;;5005445;28;20223;-79
2023/06/23 08:19:51;;;;;;;3.97;3.67;;;23.50;71.70;23.10;96892.00;;;;5003222;28;20228;-80
2023/06/23 08:22:18;;;;;;;4.50;4.10;;;23.50;71.40;23.10;96896.00;;;;4993799;28;20283;-79
2023/06/23 08:24:46;;;;;;;3.90;3.60;;;23.60;70.80;23.10;96904.00;;;;4986984;28;20375;-80
2023/06/23 08:27:13;;;;;;;3.60;3.30;;;23.60;70.70;23.10;96894.00;;;;4987149;28;20222;-80
2023/06/23 08:29:41;;;;;;;4.30;3.90;;;23.60;70.70;23.10;96896.00;;;;4979429;28;20199;-79
2023/06/23 08:32:10;;;;;;;3.93;3.63;;;23.60;70.50;23.10;96915.00;;;;4982491;28;20697;-80
2023/06/23 08:34:38;;;;;;;4.00;3.70;;;23.60;69.60;23.10;96907.00;;;;4988990;28;20198;-80
2023/06/23 08:37:08;;;;;;;4.30;4.00;;;23.60;69.40;23.00;96906.00;;;;4975145;28;20229;-80
2023/06/23 08:39:36;;;;;;;3.77;3.47;;;23.60;69.40;23.00;96912.00;;;;4979353;28;20283;-80
2023/06/23 08:42:04;;;;;;;4.17;3.87;;;23.50;69.70;23.00;96915.00;;;;5001507;28;20209;-80
2023/06/23 08:44:34;;;;;;;5.87;4.10;;;23.50;68.70;22.90;96912.00;;;;4974563;28;20200;-80
2023/06/23 08:47:05;;;;;;;3.73;3.43;;;23.50;68.50;22.90;96923.00;;;;4996022;28;20693;-80
2023/06/23 08:49:35;;;;;;;3.70;3.40;;;23.40;68.20;22.80;96920.00;;;;4994670;28;20255;-79
2023/06/23 08:52:03;;;;;;;3.93;3.60;;;23.40;67.90;22.80;96925.00;;;;4984028;28;20206;-80
2023/06/23 08:54:33;;;;;;;4.40;4.10;;;23.40;67.80;22.70;96927.00;;;;4975369;28;20215;-80
2023/06/23 08:57:00;;;;;;;3.70;3.40;;;23.30;67.80;22.70;96921.00;;;;4983294;28;20225;-80
2023/06/23 08:59:28;;;;;;;4.20;3.80;;;23.30;67.80;22.70;96944.00;;;;4976508;28;20657;-80
2023/06/23 09:01:55;;;;;;;4.17;3.83;;;23.20;67.60;22.60;96939.00;;;;4981144;28;20210;-80
2023/06/23 09:04:23;;;;;;;5.13;3.73;;;23.20;67.80;22.60;96941.00;;;;4995161;28;20209;-80
2023/06/23 09:06:50;;;;;;;4.50;4.20;;;23.20;67.80;22.60;96942.00;;;;4986317;28;20804;-80
2023/06/23 09:09:20;;;;;;;5.30;4.47;;;23.10;67.80;22.60;96948.00;;;;4979410;28;20238;-81
2023/06/23 09:11:49;;;;;;;4.53;4.23;;;23.10;67.90;22.60;96940.00;;;;4976746;28;20214;-81
2023/06/23 09:14:17;;;;;;;4.57;4.17;;;23.10;67.90;22.60;96939.00;;;;4976420;28;20202;-80
2023/06/23 09:16:45;;;;;;;4.27;3.93;;;23.10;67.80;22.60;96948.00;;;;4976124;28;20233;-81
2023/06/23 09:19:13;;;;;;;4.63;4.23;;;23.10;67.60;22.70;96953.00;;;;4976254;28;20553;-82
2023/06/23 09:21:42;;;;;;;5.00;4.57;;;23.20;67.40;22.70;96939.00;;;;4976581;28;20572;-83
2023/06/23 09:24:10;;;;;;;4.77;4.40;;;23.20;67.10;22.70;96947.00;;;;4975723;28;20240;-83
2023/06/23 09:26:49;;;;;;;5.17;4.77;;;23.20;67.30;22.80;96931.00;;;;4986580;28;20257;-82
2023/06/23 09:29:19;;;;;;;6.87;4.73;;;23.30;67.90;22.90;96935.00;;;;4976142;28;20207;-82
2023/06/23 09:31:49;;;;;;;4.83;4.37;;;23.30;68.00;23.10;96939.00;;;;4975921;28;20835;-80
2023/06/23 09:34:24;;;;;;;4.93;4.53;;;23.40;68.50;23.30;96943.00;;;;4975829;28;20209;-81
2023/06/23 09:36:53;;;;;;;5.67;5.17;;;23.60;68.60;23.50;96933.00;;;;4972068;28;20228;-81
2023/06/23 09:39:22;;;;;;;5.13;4.40;;;23.70;68.10;23.60;96939.00;;;;4967058;28;20254;-81
2023/06/23 09:41:57;;;;;;;4.93;4.40;;;23.90;68.60;23.80;96938.00;;;;4976030;28;20670;-80
2023/06/23 09:44:34;;;;;;;5.40;4.90;;;24.00;67.80;23.90;96944.00;;;;4965403;28;20202;-80
2023/06/23 09:47:03;;;;;;;4.73;4.33;;;24.10;66.60;24.00;96946.00;;;;4971672;28;20227;-79
2023/06/23 09:49:39;;;;;;;5.30;4.80;;;24.30;66.70;24.00;96934.00;;;;4981449;28;20295;-79
2023/06/23 09:52:08;;;;;;;5.10;4.60;;;24.40;65.50;24.10;96937.00;;;;4975171;28;20241;-81
2023/06/23 09:54:37;;;;;;;4.90;4.50;;;24.40;64.90;24.00;96937.00;;;;4973045;28;20194;-80
2023/06/23 09:57:09;;;;;;;5.37;4.83;;;24.50;64.80;24.00;96929.00;;;;4971326;28;20254;-79
2023/06/23 09:59:39;;;;;;;4.50;4.10;;;24.50;64.60;24.10;96929.00;;;;4968861;28;20210;-80
2023/06/23 10:02:08;;;;;;;5.30;4.90;;;24.50;64.70;24.20;96930.00;;;;4986143;28;20203;-80
2023/06/23 10:04:37;;;;;;;5.47;4.97;;;24.60;65.80;24.30;96931.00;;;;4966999;28;20203;-81
2023/06/23 10:07:20;;;;;;;5.20;4.80;;;24.70;66.10;24.50;96931.00;;;;4981962;28;20234;-80
2023/06/23 10:09:52;;;;;;;4.83;4.37;;;24.90;65.30;24.80;96931.00;;;;4974829;28;20205;-84
2023/06/23 10:12:23;;;;;;;4.80;4.40;;;25.10;64.90;25.00;96924.00;;;;4981331;28;20653;-80
2023/06/23 10:14:52;;;;;;;6.50;4.47;;;25.30;65.20;25.20;96919.00;;;;4976099;28;20613;-80
2023/06/23 10:17:20;;;;;;;4.83;4.43;;;25.50;65.30;25.40;96916.00;;;;4987666;28;20239;-80
2023/06/23 10:19:48;;;;;;;4.47;4.07;;;25.70;64.90;25.60;96910.00;;;;4969010;28;20209;-80
2023/06/23 10:22:18;;;;;;;4.43;4.03;;;26.00;64.10;25.80;96914.00;;;;4975957;28;20203;-79
2023/06/23 10:24:48;;;;;;;4.70;4.30;;;26.20;62.90;26.00;96908.00;;;;4975788;28;20203;-80
2023/06/23 10:27:22;;;;;;;4.40;4.07;;;26.40;61.70;26.00;96921.00;;;;4974466;28;20219;-80
2023/06/23 10:29:55;;;;;;;4.53;4.13;;;26.50;61.00;26.10;96917.00;;;;4975514;28;20209;-80
2023/06/23 10:32:24;;;;;;;5.10;4.60;;;26.60;60.30;26.10;96918.00;;;;4978028;28;20282;-79
2023/06/23 10:34:56;;;;;;;4.23;3.83;;;26.60;60.20;26.10;96919.00;;;;4984913;28;20287;-80
2023/06/23 10:37:27;;;;;;;4.30;3.90;;;26.70;60.70;26.10;96927.00;;;;4983310;28;20254;-81
2023/06/23 10:40:01;;;;;;;5.47;4.53;;;26.70;60.70;26.10;96917.00;;;;4999202;28;20210;-80
2023/06/23 10:42:33;;;;;;;4.87;4.47;;;26.70;59.70;26.10;96911.00;;;;4994511;28;20268;-79
2023/06/23 10:45:04;;;;;;;3.97;3.60;;;26.70;61.00;26.20;96928.00;;;;4993097;28;20574;-80
2023/06/23 10:47:32;;;;;;;3.90;3.50;;;26.60;58.90;26.10;96922.00;;;;4982081;28;20315;-81
2023/06/23 10:49:59;;;;;;;3.73;3.43;;;26.60;58.80;26.10;96926.00;;;;4990401;28;20555;-82
2023/06/23 10:52:28;;;;;;;3.23;3.03;;;26.60;58.00;26.10;96909.00;;;;4979535;28;20200;-81
2023/06/23 10:54:55;;;;;;;3.30;3.00;;;26.60;57.50;26.00;96920.00;;;;4975327;28;20203;-80
2023/06/23 10:57:25;;;;;;;5.80;3.00;;;26.50;57.00;26.00;96917.00;;;;4973557;28;20239;-80
2023/06/23 11:00:05;;;;;;;2.90;2.60;;;26.50;56.20;25.90;96911.00;;;;4966886;28;20206;-79
2023/06/23 11:02:53;;;;;;;3.13;2.80;;;26.40;55.30;25.80;96918.00;;;;4984692;28;20202;-81
2023/06/23 11:05:21;;;;;;;3.53;2.97;;;26.30;55.10;25.90;96926.00;;;;4990925;28;20880;-81
2023/06/23 11:08:02;;;;;;;2.60;2.40;;;26.30;56.20;25.90;96922.00;;;;4973609;28;20258;-81
2023/06/23 11:10:49;;;;;;;2.93;2.73;;;26.30;55.10;25.90;96918.00;;;;4975021;28;20187;-81